Time;durP1;ratioP1;P1;durP2;ratioP2;P2;SDS_P1;SDS_P2;PMS_P1;PMS_P2;Temp;Humidity;BMP_temperature;BMP_pressure;BME280_temperature;BME280_humidity;BME280_pressure;Samples;Min_cycle;Max_cycle;Signal;HPM_P1;HPM_P2
2022/09/20 00:02:21;;;;;;;6.87;3.83;;;10.30;99.90;10.20;100595.00;;;;4929181;28;107859;-65
2022/09/20 00:04:49;;;;;;;2.27;1.23;;;10.30;99.90;10.20;100602.00;;;;4930685;28;121553;-66
2022/09/20 00:07:15;;;;;;;1.33;0.70;;;10.20;99.90;10.20;100599.00;;;;4931797;28;120798;-65
2022/09/20 00:09:41;;;;;;;1.07;0.80;;;10.20;99.90;10.10;100610.00;;;;4930857;28;96190;-67
2022/09/20 00:12:07;;;;;;;1.97;1.27;;;10.20;99.90;10.10;100609.00;;;;4932183;28;104034;-66
2022/09/20 00:14:32;;;;;;;1.13;0.80;;;10.20;99.90;10.10;100609.00;;;;4931652;28;93674;-66
2022/09/20 00:16:58;;;;;;;2.73;0.60;;;10.20;99.90;10.10;100609.00;;;;4931461;28;109026;-67
2022/09/20 00:19:24;;;;;;;4.00;0.70;;;10.20;99.90;10.10;100610.00;;;;4914577;28;91827;-66
2022/09/20 00:21:50;;;;;;;2.20;0.40;;;10.10;99.90;10.00;100613.00;;;;4932918;28;92543;-65
2022/09/20 00:24:15;;;;;;;0.70;0.70;;;10.10;99.90;10.00;100601.00;;;;4930778;28;123380;-65
2022/09/20 00:26:41;;;;;;;0.40;0.40;;;10.10;99.90;9.90;100610.00;;;;4931307;28;121799;-65
2022/09/20 00:29:07;;;;;;;0.80;0.63;;;10.00;99.90;9.90;100612.00;;;;4930771;28;109827;-67
2022/09/20 00:31:34;;;;;;;0.80;0.60;;;10.00;99.90;9.90;100616.00;;;;4931423;28;108107;-67
2022/09/20 00:36:44;;;;;;;2.43;0.93;;;9.90;99.90;9.70;100616.00;;;;4929122;28;92037;-66
2022/09/20 00:39:13;;;;;;;0.70;0.70;;;9.80;99.90;9.70;100617.00;;;;4930663;28;110843;-65
2022/09/20 00:41:39;;;;;;;1.47;0.80;;;9.80;99.90;9.70;100625.00;;;;4933094;28;91982;-65
2022/09/20 00:44:53;;;;;;;0.70;0.70;;;9.80;99.90;9.60;100616.00;;;;4930781;28;121468;-66
2022/09/20 00:47:59;;;;;;;0.40;0.40;;;9.80;99.90;9.60;100620.00;;;;4946637;28;92469;-66
2022/09/20 00:50:36;;;;;;;0.43;0.43;;;9.80;99.90;9.60;100609.00;;;;4931263;28;92082;-65
2022/09/20 00:53:26;;;;;;;0.60;0.50;;;9.70;99.90;9.60;100622.00;;;;4928914;28;93896;-66
2022/09/20 00:56:01;;;;;;;0.60;0.60;;;9.60;99.90;9.50;100626.00;;;;4931123;28;92823;-66
2022/09/20 00:58:29;;;;;;;0.57;0.50;;;9.60;99.90;9.60;100620.00;;;;4931474;28;93758;-64
2022/09/20 01:00:56;;;;;;;0.70;0.70;;;9.60;99.90;9.60;100630.00;;;;4946055;28;99737;-65
2022/09/20 01:03:27;;;;;;;1.17;0.70;;;9.60;99.90;9.60;100619.00;;;;4930881;28;110231;-66
2022/09/20 01:05:53;;;;;;;0.97;0.87;;;9.60;99.90;9.60;100631.00;;;;4930797;28;112794;-64
2022/09/20 01:08:23;;;;;;;6.50;0.60;;;9.60;99.90;9.60;100631.00;;;;4930668;28;122749;-66
2022/09/20 01:10:49;;;;;;;0.60;0.57;;;9.60;99.90;9.50;100622.00;;;;4932242;28;91641;-66
2022/09/20 01:13:15;;;;;;;0.60;0.50;;;9.60;99.90;9.50;100630.00;;;;4931221;28;97806;-67
2022/09/20 01:15:43;;;;;;;1.60;0.77;;;9.60;99.90;9.50;100630.00;;;;4930816;28;92303;-66
2022/09/20 01:18:09;;;;;;;0.80;0.80;;;9.50;99.90;9.40;100623.00;;;;4930873;28;95798;-65
2022/09/20 01:20:40;;;;;;;1.60;1.00;;;9.50;99.90;9.40;100630.00;;;;4944937;28;108661;-66
2022/09/20 01:23:25;;;;;;;1.27;0.47;;;9.50;99.90;9.40;100638.00;;;;4925848;28;92416;-66
2022/09/20 01:26:24;;;;;;;0.90;0.70;;;9.50;99.90;9.40;100621.00;;;;4927938;28;114676;-66
2022/09/20 01:29:07;;;;;;;0.73;0.67;;;9.50;99.90;9.30;100625.00;;;;4927859;28;93348;-66
2022/09/20 01:31:39;;;;;;;1.63;0.63;;;9.40;99.90;9.30;100627.00;;;;4929897;28;92507;-67
2022/09/20 01:34:21;;;;;;;1.17;0.47;;;9.40;99.90;9.30;100622.00;;;;4910930;28;92571;-67
2022/09/20 01:36:50;;;;;;;0.53;0.50;;;9.40;99.90;9.20;100619.00;;;;4928320;28;92867;-65
2022/09/20 01:40:22;;;;;;;0.80;0.80;;;9.30;99.90;9.20;100616.00;;;;4909815;28;114941;-65
2022/09/20 01:43:19;;;;;;;0.40;0.40;;;9.30;99.90;9.10;100615.00;;;;4850620;28;103234;-65
2022/09/20 01:45:48;;;;;;;0.70;0.70;;;9.30;99.90;9.10;100634.00;;;;4867274;28;99351;-65
2022/09/20 01:48:36;;;;;;;0.60;0.47;;;9.20;99.90;9.10;100627.00;;;;4922677;28;93494;-65
2022/09/20 01:51:34;;;;;;;1.93;0.93;;;9.20;99.90;9.10;100630.00;;;;4927876;28;93263;-65
2022/09/20 01:54:10;;;;;;;0.53;0.53;;;9.20;99.90;9.10;100627.00;;;;4944290;28;91991;-65
2022/09/20 01:57:34;;;;;;;1.00;0.60;;;9.20;99.90;9.10;100624.00;;;;4910614;28;92784;-65
2022/09/20 02:00:14;;;;;;;1.60;1.20;;;9.20;99.90;9.10;100629.00;;;;4929368;28;93102;-66
2022/09/20 02:03:30;;;;;;;0.77;0.77;;;9.90;99.90;9.10;100634.00;;;;4942369;28;109536;-65
2022/09/20 02:06:38;;;;;;;1.60;1.00;;;9.20;99.90;9.10;100630.00;;;;4928638;28;91678;-65
2022/09/20 02:09:50;;;;;;;1.50;1.40;;;9.20;99.90;9.10;100633.00;;;;4927943;28;92643;-66
2022/09/20 02:12:55;;;;;;;1.33;1.13;;;9.20;99.90;9.20;100635.00;;;;4943352;28;94248;-66
2022/09/20 02:16:08;;;;;;;1.20;1.00;;;9.30;99.90;9.20;100633.00;;;;4919805;28;93581;-65
2022/09/20 02:19:31;;;;;;;2.73;1.20;;;9.30;99.90;9.30;100640.00;;;;4872639;28;93236;-65
2022/09/20 02:22:18;;;;;;;2.67;1.73;;;9.40;99.90;9.30;100642.00;;;;4906004;28;1105919;-65
2022/09/20 02:25:05;;;;;;;3.00;1.37;;;9.40;99.90;9.30;100644.00;;;;4929927;28;92679;-65
2022/09/20 02:27:58;;;;;;;1.53;1.07;;;9.40;99.90;9.30;100646.00;;;;4928347;28;92912;-66
2022/09/20 02:30:55;;;;;;;1.53;1.43;;;9.40;99.90;9.30;100644.00;;;;4928178;28;105033;-65
2022/09/20 02:33:50;;;;;;;1.53;1.43;;;9.40;99.90;9.40;100643.00;;;;4928680;28;92470;-65
2022/09/20 02:36:38;;;;;;;2.43;1.20;;;9.50;99.90;9.40;100649.00;;;;4928122;28;93025;-66
2022/09/20 02:39:30;;;;;;;1.50;1.37;;;9.50;99.90;9.40;100654.00;;;;4940980;28;115103;-66
2022/09/20 02:42:12;;;;;;;2.30;1.23;;;9.50;99.90;9.40;100651.00;;;;4929392;28;92349;-66
2022/09/20 02:45:12;;;;;;;1.20;1.10;;;9.50;99.90;9.40;100651.00;;;;4927423;28;93350;-66
2022/09/20 02:47:47;;;;;;;1.90;1.60;;;9.50;99.90;9.50;100649.00;;;;4929930;28;92515;-65
2022/09/20 02:50:37;;;;;;;1.03;0.97;;;9.50;99.90;9.40;100653.00;;;;4927978;28;122606;-66
2022/09/20 02:53:34;;;;;;;2.00;1.10;;;9.50;99.90;9.50;100654.00;;;;4927061;28;92541;-66
2022/09/20 02:56:39;;;;;;;1.70;1.60;;;9.50;99.90;9.40;100657.00;;;;4934089;28;104311;-66
2022/09/20 02:59:34;;;;;;;3.07;1.57;;;9.50;99.90;9.50;100659.00;;;;4944367;28;93577;-66
2022/09/20 03:02:24;;;;;;;1.73;1.30;;;9.60;99.90;9.50;100659.00;;;;4927772;28;92817;-65
2022/09/20 03:05:04;;;;;;;1.37;1.27;;;9.60;99.90;9.50;100659.00;;;;4912218;28;101662;-65
2022/09/20 03:08:15;;;;;;;1.90;1.47;;;9.60;99.90;9.50;100668.00;;;;4929691;28;92328;-65
2022/09/20 03:10:50;;;;;;;1.63;1.50;;;9.60;99.90;9.50;100660.00;;;;4944253;28;108502;-65
2022/09/20 03:13:48;;;;;;;3.50;1.57;;;9.60;99.90;9.50;100664.00;;;;4929161;28;93274;-65
2022/09/20 03:16:50;;;;;;;2.47;1.43;;;9.60;99.90;9.50;100662.00;;;;4927693;28;100080;-65
2022/09/20 03:19:36;;;;;;;3.13;1.50;;;9.60;99.90;9.50;100664.00;;;;4924029;28;101463;-65
2022/09/20 03:22:25;;;;;;;5.13;1.50;;;9.60;99.90;9.50;100669.00;;;;4926350;28;104702;-65
2022/09/20 03:25:33;;;;;;;1.90;1.47;;;9.60;99.90;9.50;100664.00;;;;4928073;28;93436;-66
2022/09/20 03:28:37;;;;;;;2.33;1.30;;;9.60;99.90;9.50;100672.00;;;;4929351;28;92695;-66
2022/09/20 03:32:07;;;;;;;3.77;1.53;;;9.60;99.90;9.50;100675.00;;;;4929184;28;93003;-66
2022/09/20 03:34:59;;;;;;;2.43;1.80;;;9.60;99.90;9.50;100672.00;;;;4832100;29;91863;-66
2022/09/20 03:37:33;;;;;;;1.90;1.40;;;9.60;99.90;9.50;100670.00;;;;4832268;29;92789;-66
2022/09/20 03:40:36;;;;;;;3.27;1.70;;;9.60;99.90;9.50;100679.00;;;;4898549;28;92823;-66
2022/09/20 03:43:25;;;;;;;2.70;1.50;;;9.60;99.90;9.60;100674.00;;;;4928366;28;93354;-65
2022/09/20 03:46:19;;;;;;;5.00;2.30;;;9.60;99.90;9.50;100675.00;;;;4927578;28;114472;-65
2022/09/20 03:49:22;;;;;;;4.63;2.27;;;9.60;99.90;9.60;100668.00;;;;4927914;28;93484;-65
2022/09/20 03:51:57;;;;;;;2.20;2.00;;;9.60;99.90;9.60;100669.00;;;;4927948;28;92064;-65
2022/09/20 03:54:56;;;;;;;1.37;1.17;;;9.60;99.90;9.60;100671.00;;;;4929010;28;96729;-65
2022/09/20 03:57:43;;;;;;;2.13;1.90;;;9.60;99.90;9.60;100671.00;;;;4928725;28;93675;-65
2022/09/20 04:00:29;;;;;;;4.97;2.43;;;9.70;99.90;9.60;100675.00;;;;4942925;28;93488;-65
2022/09/20 04:03:23;;;;;;;3.83;2.67;;;9.70;99.90;9.70;100671.00;;;;4943208;28;92150;-65
2022/09/20 04:06:31;;;;;;;2.10;1.80;;;9.70;99.90;9.70;100671.00;;;;4928043;28;92553;-66
2022/09/20 04:09:18;;;;;;;3.07;2.43;;;9.70;99.90;9.70;100672.00;;;;4926031;28;115181;-66
2022/09/20 04:12:16;;;;;;;2.43;2.13;;;9.80;99.90;9.70;100673.00;;;;4942110;28;109144;-65
2022/09/20 04:15:02;;;;;;;8.50;3.17;;;9.80;99.90;9.80;100682.00;;;;4911177;28;92522;-66
2022/09/20 04:18:08;;;;;;;6.17;2.73;;;9.80;99.90;9.80;100680.00;;;;4928743;28;92417;-65
2022/09/20 04:20:47;;;;;;;4.90;2.70;;;9.90;99.90;9.80;100686.00;;;;4927948;28;93763;-66
2022/09/20 04:23:39;;;;;;;5.40;2.73;;;9.90;99.90;9.90;100697.00;;;;4910894;28;93121;-65
2022/09/20 04:26:05;;;;;;;5.90;3.17;;;9.90;99.90;9.90;100696.00;;;;4942537;28;94533;-65
2022/09/20 04:28:52;;;;;;;2.80;2.10;;;10.00;99.90;9.90;100689.00;;;;4927722;28;92922;-65
2022/09/20 04:31:51;;;;;;;5.93;2.97;;;10.00;99.90;9.90;100685.00;;;;4923998;28;107230;-64
2022/09/20 04:36:27;;;;;;;3.77;3.20;;;10.00;99.90;10.00;100690.00;;;;4927652;28;92609;-65
2022/09/20 04:37:33;;;;;;;4.40;2.60;;;10.00;99.90;10.00;100690.00;;;;4930910;28;92077;-65
2022/09/20 04:40:31;;;;;;;4.23;2.67;;;10.10;99.90;10.00;100694.00;;;;4930843;28;93731;-66
2022/09/20 04:43:31;;;;;;;8.70;3.67;;;10.10;99.90;10.00;100698.00;;;;4931370;28;114210;-66
2022/09/20 04:46:54;;;;;;;4.50;3.53;;;10.10;99.90;10.00;100695.00;;;;4929951;28;93361;-65
2022/09/20 04:49:34;;;;;;;3.30;2.67;;;10.00;99.90;10.00;100703.00;;;;4931592;28;92286;-66
2022/09/20 04:52:59;;;;;;;3.50;2.73;;;10.10;99.90;10.00;100695.00;;;;4932494;28;92497;-64
2022/09/20 04:55:51;;;;;;;3.40;2.60;;;10.10;99.90;10.00;100704.00;;;;4931199;28;94168;-66
2022/09/20 04:58:37;;;;;;;5.73;4.30;;;10.10;99.90;10.00;100708.00;;;;4931934;28;92802;-66
2022/09/20 05:01:19;;;;;;;6.57;3.33;;;10.10;99.90;10.00;100700.00;;;;4929534;28;91875;-67
2022/09/20 05:04:46;;;;;;;3.93;2.77;;;10.10;99.90;9.90;100703.00;;;;4928487;28;92689;-67
2022/09/20 05:08:02;;;;;;;3.80;3.33;;;10.00;99.90;9.90;100709.00;;;;4919852;28;93681;-67
2022/09/20 05:11:16;;;;;;;4.93;2.90;;;10.00;99.90;9.80;100706.00;;;;4943192;28;93494;-67
2022/09/20 05:14:43;;;;;;;5.83;3.17;;;10.00;99.90;9.80;100718.00;;;;4889368;28;92330;-68
2022/09/20 05:17:48;;;;;;;4.10;3.27;;;9.90;99.90;9.80;100721.00;;;;4889293;28;92565;-67
2022/09/20 05:20:41;;;;;;;4.47;2.87;;;9.90;99.90;9.80;100721.00;;;;4945647;28;93081;-67
2022/09/20 05:24:08;;;;;;;8.20;3.77;;;10.00;99.90;9.80;100726.00;;;;4931481;28;93637;-67
2022/09/20 05:27:09;;;;;;;9.33;4.77;;;9.90;99.90;9.80;100735.00;;;;4930728;28;92582;-67
2022/09/20 05:29:49;;;;;;;7.97;3.53;;;9.90;99.90;9.90;100731.00;;;;4929079;28;92128;-68
2022/09/20 05:33:08;;;;;;;6.03;4.33;;;9.90;99.90;9.80;100723.00;;;;4912138;28;94774;-67
2022/09/20 05:35:59;;;;;;;7.53;5.13;;;9.90;99.90;9.80;100722.00;;;;4930591;28;92478;-67
2022/09/20 05:38:49;;;;;;;9.07;5.03;;;9.90;99.90;9.80;100735.00;;;;4928889;28;93006;-66
2022/09/20 05:41:30;;;;;;;6.57;3.93;;;9.90;99.90;9.80;100741.00;;;;4930388;28;93367;-66
2022/09/20 05:44:17;;;;;;;6.43;4.63;;;9.90;99.90;9.80;100733.00;;;;4942637;28;93622;-66
2022/09/20 05:47:11;;;;;;;8.90;4.47;;;9.80;99.90;9.80;100737.00;;;;4945450;28;94674;-66
2022/09/20 05:50:37;;;;;;;7.47;4.53;;;9.90;99.90;9.80;100745.00;;;;4929023;28;92514;-66
2022/09/20 05:53:52;;;;;;;10.97;5.40;;;9.90;99.90;9.80;100742.00;;;;4931775;28;92670;-67
2022/09/20 05:57:03;;;;;;;8.40;5.80;;;9.90;99.90;9.80;100747.00;;;;4929196;28;92715;-68
2022/09/20 06:00:12;;;;;;;7.90;4.60;;;10.00;99.90;9.90;100750.00;;;;4929256;28;92500;-68
2022/09/20 06:03:33;;;;;;;7.27;4.33;;;9.90;99.90;9.90;100752.00;;;;4930056;28;91938;-68
2022/09/20 06:06:13;;;;;;;7.77;4.33;;;9.90;99.90;9.90;100761.00;;;;4896318;28;100906;-67
2022/09/20 06:09:22;;;;;;;7.37;4.10;;;9.90;99.90;9.90;100756.00;;;;4911371;28;114347;-67
2022/09/20 06:12:34;;;;;;;11.43;4.03;;;10.00;99.90;9.90;100763.00;;;;4928613;28;93664;-67
2022/09/20 06:15:25;;;;;;;8.60;3.77;;;10.00;99.90;10.00;100774.00;;;;4929219;28;92755;-66
2022/09/20 06:18:41;;;;;;;9.80;4.20;;;10.00;99.90;10.00;100772.00;;;;4945139;28;92197;-66
2022/09/20 06:21:19;;;;;;;7.30;4.63;;;10.10;99.90;10.10;100764.00;;;;4929403;28;92571;-67
2022/09/20 06:23:45;;;;;;;6.73;4.40;;;10.10;99.90;10.10;100780.00;;;;4930054;28;92915;-66
2022/09/20 06:26:22;;;;;;;6.50;4.77;;;10.20;99.90;10.20;100770.00;;;;4944379;28;109611;-67
2022/09/20 06:28:58;;;;;;;6.93;5.13;;;10.20;99.90;10.20;100772.00;;;;4942533;28;92806;-67
2022/09/20 06:31:25;;;;;;;11.50;5.63;;;10.30;99.90;10.30;100783.00;;;;4912279;28;92469;-66
2022/09/20 06:34:09;;;;;;;8.07;5.13;;;10.30;99.90;10.30;100785.00;;;;4929193;28;113420;-66
2022/09/20 06:42:38;;;;;;;8.00;4.57;;;10.40;99.90;10.40;100787.00;;;;4928190;28;92056;-68
2022/09/20 06:45:04;;;;;;;5.90;4.13;;;10.50;99.90;10.40;100791.00;;;;4928541;28;122912;-67
2022/09/20 06:47:30;;;;;;;6.10;3.63;;;10.40;99.90;10.40;100791.00;;;;4929880;28;98419;-67
2022/09/20 06:49:57;;;;;;;4.63;2.40;;;10.40;99.90;10.40;100789.00;;;;4929074;28;92391;-66
2022/09/20 06:52:23;;;;;;;6.13;3.23;;;10.40;99.90;10.40;100798.00;;;;4930473;28;93703;-67
2022/09/20 06:54:53;;;;;;;4.70;2.83;;;10.40;99.90;10.40;100792.00;;;;4927720;28;122974;-68
2022/09/20 06:57:34;;;;;;;5.30;3.23;;;10.80;99.90;10.40;100806.00;;;;4930722;28;91246;-67
2022/09/20 07:00:01;;;;;;;4.73;2.90;;;10.40;99.90;10.40;100795.00;;;;4926223;28;103452;-67
2022/09/20 07:02:26;;;;;;;4.67;2.37;;;10.50;99.90;10.50;100802.00;;;;4930057;28;95234;-67
2022/09/20 07:04:58;;;;;;;5.23;2.90;;;10.50;99.90;10.50;100806.00;;;;4927673;28;121122;-67
2022/09/20 07:07:24;;;;;;;4.73;2.77;;;10.50;99.90;10.60;100816.00;;;;4930303;28;92312;-67
2022/09/20 07:09:50;;;;;;;5.57;3.17;;;10.60;99.90;10.70;100811.00;;;;4929511;28;92762;-68
2022/09/20 07:12:15;;;;;;;6.47;3.20;;;10.70;99.90;10.80;100813.00;;;;4929766;28;93571;-67
2022/09/20 07:14:43;;;;;;;4.63;2.63;;;10.80;99.90;10.90;100810.00;;;;4929301;28;93428;-68
2022/09/20 07:17:08;;;;;;;3.57;2.40;;;10.90;99.90;10.90;100819.00;;;;4929917;28;92439;-68
2022/09/20 07:19:35;;;;;;;3.10;2.13;;;10.90;99.90;11.00;100822.00;;;;4924115;28;109782;-70
2022/09/20 07:22:01;;;;;;;2.83;2.23;;;11.00;99.90;11.00;100829.00;;;;4926285;28;92666;-68
2022/09/20 07:24:31;;;;;;;1.73;1.63;;;9.90;99.90;11.00;100829.00;;;;4910601;28;111007;-68
2022/09/20 07:27:00;;;;;;;3.90;2.43;;;11.20;99.90;11.00;100828.00;;;;4928010;28;92873;-68
2022/09/20 07:29:26;;;;;;;2.33;1.90;;;11.00;99.90;11.00;100827.00;;;;4928576;28;93444;-69
2022/09/20 07:31:53;;;;;;;3.90;2.13;;;11.00;99.90;11.00;100829.00;;;;4929498;28;93694;-69
2022/09/20 07:34:19;;;;;;;3.43;2.37;;;11.00;99.90;10.90;100830.00;;;;4928807;28;93677;-68
2022/09/20 07:36:49;;;;;;;2.87;2.27;;;11.00;99.90;10.90;100834.00;;;;4929641;28;92323;-68
2022/09/20 07:39:15;;;;;;;2.93;2.13;;;11.00;99.90;10.90;100835.00;;;;4929899;28;92038;-68
2022/09/20 07:41:47;;;;;;;4.30;2.67;;;10.90;99.90;10.90;100834.00;;;;4928713;28;109453;-67
2022/09/20 07:44:20;;;;;;;3.03;2.27;;;10.90;99.90;10.80;100845.00;;;;4928401;28;93421;-67
2022/09/20 07:46:48;;;;;;;2.63;2.23;;;10.90;99.90;10.80;100843.00;;;;4927825;28;91337;-67
2022/09/20 07:49:14;;;;;;;5.13;2.23;;;10.80;99.90;10.80;100845.00;;;;4929090;28;92005;-67
2022/09/20 07:51:39;;;;;;;2.53;2.00;;;10.90;99.90;10.80;100843.00;;;;4929470;28;93580;-69
2022/09/20 07:54:05;;;;;;;4.70;2.50;;;10.90;99.90;10.90;100844.00;;;;4927657;28;122804;-68
2022/09/20 07:56:31;;;;;;;3.23;2.53;;;10.90;99.90;11.10;100839.00;;;;4929585;28;92589;-68
2022/09/20 07:58:56;;;;;;;3.47;2.67;;;11.10;99.90;11.40;100849.00;;;;4928954;28;92535;-67
2022/09/20 08:01:22;;;;;;;11.27;3.37;;;11.30;99.90;11.60;100856.00;;;;4927428;28;121668;-67
2022/09/20 08:03:48;;;;;;;2.67;2.30;;;11.50;99.90;12.00;100851.00;;;;4927610;28;108876;-70
2022/09/20 08:06:15;;;;;;;5.80;3.27;;;11.80;99.90;12.30;100853.00;;;;4929546;28;92443;-69
2022/09/20 08:08:41;;;;;;;5.67;3.70;;;12.20;99.90;12.60;100854.00;;;;4918306;28;92583;-69
2022/09/20 08:11:11;;;;;;;4.30;2.73;;;12.50;99.90;12.70;100858.00;;;;4930332;28;121661;-69
2022/09/20 08:13:39;;;;;;;2.70;2.10;;;12.70;99.90;12.90;100857.00;;;;4932289;28;92722;-68
2022/09/20 08:16:09;;;;;;;3.93;2.70;;;12.80;99.90;12.90;100858.00;;;;4931572;28;93201;-68
2022/09/20 08:18:36;;;;;;;3.07;1.97;;;12.90;99.90;13.00;100858.00;;;;4928370;28;93378;-69
2022/09/20 08:21:07;;;;;;;2.37;2.10;;;13.00;99.90;13.00;100863.00;;;;4929000;28;93993;-67
2022/09/20 08:23:38;;;;;;;5.50;2.43;;;13.00;99.90;13.00;100867.00;;;;4933159;28;92741;-69
2022/09/20 08:26:06;;;;;;;2.97;1.93;;;13.10;99.90;13.10;100871.00;;;;4931954;28;92142;-67
2022/09/20 08:28:33;;;;;;;1.93;1.73;;;13.10;99.90;13.20;100870.00;;;;4932883;28;92707;-67
2022/09/20 08:31:12;;;;;;;4.37;2.07;;;13.20;99.90;13.30;100868.00;;;;4931063;28;93489;-67
2022/09/20 08:33:39;;;;;;;3.60;2.47;;;13.20;99.90;13.30;100872.00;;;;4930235;28;111915;-67
2022/09/20 08:36:07;;;;;;;2.57;1.87;;;13.30;99.90;13.30;100874.00;;;;4932340;28;91835;-67
2022/09/20 08:38:33;;;;;;;6.00;1.47;;;13.30;99.90;13.30;100874.00;;;;4904967;28;92884;-66
2022/09/20 08:41:24;;;;;;;2.93;1.53;;;13.30;99.90;13.40;100880.00;;;;4931301;28;93664;-66
2022/09/20 08:44:11;;;;;;;3.30;1.80;;;13.40;99.90;13.30;100877.00;;;;4929846;28;93595;-67
2022/09/20 08:47:06;;;;;;;3.43;1.20;;;13.40;99.90;13.30;100870.00;;;;4944735;28;94330;-68
2022/09/20 08:49:32;;;;;;;1.87;1.60;;;13.30;99.90;13.30;100876.00;;;;4928213;28;92467;-67
2022/09/20 08:51:59;;;;;;;1.03;0.93;;;13.30;99.90;13.30;100877.00;;;;4932194;28;93157;-66
2022/09/20 08:54:26;;;;;;;1.40;0.80;;;13.30;99.90;13.30;100874.00;;;;4930843;28;97306;-67
2022/09/20 08:56:52;;;;;;;2.40;1.10;;;13.30;99.90;13.30;100887.00;;;;4942954;28;110894;-66
2022/09/20 08:59:21;;;;;;;2.20;1.10;;;13.30;99.90;13.30;100887.00;;;;4929762;28;106671;-66
2022/09/20 09:01:48;;;;;;;2.87;1.60;;;13.30;99.90;13.40;100888.00;;;;4929588;28;96079;-65
2022/09/20 09:04:34;;;;;;;3.57;0.97;;;13.30;99.90;13.40;100886.00;;;;4912924;28;92751;-65
2022/09/20 09:07:01;;;;;;;0.93;0.70;;;13.40;99.90;13.60;100898.00;;;;4931172;28;92367;-65
2022/09/20 09:09:28;;;;;;;2.97;1.37;;;13.60;99.90;13.70;100899.00;;;;4930404;28;94526;-65
2022/09/20 09:11:57;;;;;;;4.30;1.03;;;13.60;99.90;13.80;100891.00;;;;4931715;28;93323;-65
2022/09/20 09:17:22;;;;;;;1.87;1.50;;;13.80;99.90;13.90;100894.00;;;;4928579;28;92570;-65
2022/09/20 09:19:55;;;;;;;1.70;1.23;;;13.90;99.90;13.90;100900.00;;;;4930965;28;92407;-66
2022/09/20 09:22:35;;;;;;;1.57;1.10;;;13.80;99.90;14.20;100897.00;;;;4929098;28;105763;-65
2022/09/20 09:25:13;;;;;;;1.30;1.20;;;14.00;99.90;14.30;100900.00;;;;4931206;28;93292;-64
2022/09/20 09:27:59;;;;;;;1.77;1.27;;;14.20;99.90;14.50;100894.00;;;;4929458;28;99992;-65
2022/09/20 09:30:37;;;;;;;4.73;0.63;;;14.40;99.90;14.60;100891.00;;;;4929936;28;93850;-62
2022/09/20 09:33:21;;;;;;;2.53;1.37;;;14.50;99.90;14.60;100899.00;;;;4931682;28;93193;-62
2022/09/20 09:36:13;;;;;;;1.57;0.70;;;14.60;99.90;14.50;100901.00;;;;4929373;28;93279;-64
2022/09/20 09:38:45;;;;;;;2.43;1.07;;;14.50;99.90;14.50;100896.00;;;;4930079;28;92415;-65
2022/09/20 09:41:28;;;;;;;1.80;1.07;;;14.50;99.90;14.50;100898.00;;;;4931615;28;92854;-65
2022/09/20 09:44:09;;;;;;;0.57;0.50;;;14.50;99.90;14.50;100894.00;;;;4928329;28;116204;-64
2022/09/20 09:46:38;;;;;;;1.07;0.70;;;14.40;99.90;14.40;100894.00;;;;4930998;28;92638;-63
2022/09/20 09:49:17;;;;;;;1.97;0.80;;;14.40;99.90;14.40;100907.00;;;;4931186;28;92362;-65
2022/09/20 09:52:04;;;;;;;2.03;1.30;;;14.40;99.90;14.70;100907.00;;;;4930169;28;93183;-66
2022/09/20 09:54:37;;;;;;;1.60;1.37;;;14.60;99.90;15.10;100909.00;;;;4931178;28;91860;-65
2022/09/20 09:57:14;;;;;;;1.20;1.10;;;14.90;99.90;15.60;100902.00;;;;4931205;28;92679;-64
2022/09/20 10:00:22;;;;;;;5.68;1.27;;;15.30;99.90;15.90;100907.00;;;;4931197;28;92440;-62
2022/09/20 10:03:19;;;;;;;1.15;0.93;;;15.70;99.90;16.30;100905.00;;;;4909969;28;93630;-65
2022/09/20 10:06:10;;;;;;;2.15;0.85;;;16.10;99.90;16.90;100904.00;;;;4927921;28;94793;-65
2022/09/20 10:08:57;;;;;;;0.55;0.55;;;16.50;99.90;17.20;100909.00;;;;4926692;28;93733;-62
2022/09/20 10:11:57;;;;;;;1.15;0.88;;;16.90;99.90;17.30;100909.00;;;;4929658;28;92533;-61
2022/09/20 10:15:16;;;;;;;0.98;0.60;;;17.20;99.90;17.20;100911.00;;;;4927270;28;92103;-63
2022/09/20 10:18:13;;;;;;;1.08;0.90;;;17.20;99.90;17.20;100903.00;;;;4930588;28;92816;-62
2022/09/20 10:21:12;;;;;;;1.38;0.80;;;17.10;99.90;17.10;100912.00;;;;4930080;28;93288;-62
2022/09/20 10:23:47;;;;;;;2.33;0.85;;;17.00;99.90;17.30;100904.00;;;;4928838;28;91627;-61
2022/09/20 10:26:55;;;;;;;1.02;0.82;;;17.10;99.90;17.40;100911.00;;;;4930887;28;92834;-64
2022/09/20 10:29:38;;;;;;;1.25;0.93;;;17.20;99.90;17.60;100923.00;;;;4895035;28;116492;-62
2022/09/20 10:32:54;;;;;;;0.82;0.63;;;17.40;99.90;17.60;100918.00;;;;4927320;28;93459;-62
2022/09/20 10:36:07;;;;;;;0.73;0.63;;;17.50;99.90;17.60;100928.00;;;;4944641;28;92478;-62
2022/09/20 10:38:52;;;;;;;1.80;0.73;;;17.50;99.90;17.30;100918.00;;;;4917071;28;102842;-63
2022/09/20 10:44:18;;;;;;;0.68;0.68;;;17.00;99.90;16.70;100937.00;;;;4926323;28;91974;-61
2022/09/20 10:47:01;;;;;;;0.60;0.60;;;16.70;99.90;16.50;100937.00;;;;4930843;28;92891;-61
2022/09/20 10:49:46;;;;;;;1.17;0.70;;;16.50;99.90;16.30;100934.00;;;;4928027;28;92330;-63
2022/09/20 10:52:42;;;;;;;2.03;0.73;;;16.30;99.90;16.00;100946.00;;;;4927770;28;91779;-62
2022/09/20 10:55:29;;;;;;;0.80;0.80;;;16.10;99.90;15.80;100945.00;;;;4928464;28;93177;-62
2022/09/20 10:58:29;;;;;;;3.63;1.15;;;15.90;99.90;15.60;100938.00;;;;4928083;28;92676;-61
2022/09/20 11:00:55;;;;;;;2.20;0.82;;;15.70;99.90;15.50;100939.00;;;;4927353;28;93014;-63
2022/09/20 11:03:32;;;;;;;4.50;0.82;;;15.50;99.90;15.60;100943.00;;;;4929757;28;93021;-62
2022/09/20 11:06:37;;;;;;;1.38;0.98;;;15.50;99.90;16.10;100930.00;;;;4929333;28;92847;-62
2022/09/20 11:09:08;;;;;;;0.88;0.52;;;15.80;99.90;16.40;100946.00;;;;4927693;28;92845;-61
2022/09/20 11:11:51;;;;;;;0.60;0.60;;;16.20;99.90;16.70;100939.00;;;;4930364;28;92071;-63
2022/09/20 11:14:22;;;;;;;1.38;0.88;;;16.40;99.90;17.00;100931.00;;;;4926651;28;92579;-62
2022/09/20 11:17:04;;;;;;;0.50;0.50;;;16.70;99.90;17.10;100940.00;;;;4927488;28;114273;-62
2022/09/20 11:19:34;;;;;;;0.52;0.52;;;16.90;99.90;17.30;100931.00;;;;4909968;28;91723;-63
2022/09/20 11:22:54;;;;;;;1.02;0.85;;;17.00;99.90;17.80;100934.00;;;;4911672;28;99592;-62
2022/09/20 11:25:45;;;;;;;0.43;0.40;;;17.40;99.90;18.30;100930.00;;;;4924217;28;92892;-62
2022/09/20 11:28:25;;;;;;;1.25;0.65;;;17.90;99.90;18.80;100924.00;;;;4942178;28;93436;-63
2022/09/20 11:31:09;;;;;;;0.40;0.38;;;18.40;99.90;19.40;100932.00;;;;4928866;28;92736;-62
2022/09/20 11:33:44;;;;;;;0.60;0.50;;;18.90;99.90;20.00;100936.00;;;;4943315;28;103051;-62
2022/09/20 11:36:22;;;;;;;1.50;0.68;;;19.40;99.90;20.40;100934.00;;;;4924353;28;93675;-62
2022/09/20 11:38:57;;;;;;;0.57;0.43;;;19.90;99.90;20.70;100934.00;;;;4942523;28;104287;-62
2022/09/20 11:41:30;;;;;;;0.70;0.28;;;20.40;99.90;20.90;100924.00;;;;4927938;28;92575;-62
2022/09/20 11:44:06;;;;;;;0.35;0.35;;;20.50;99.90;21.20;100929.00;;;;4931912;28;91953;-61
2022/09/20 11:46:46;;;;;;;0.82;0.60;;;20.80;99.90;21.40;100924.00;;;;4947427;28;92844;-62
2022/09/20 11:49:22;;;;;;;1.17;0.63;;;21.00;99.90;21.70;100923.00;;;;4913119;28;93645;-62
2022/09/20 11:52:17;;;;;;;2.13;0.50;;;21.20;99.90;21.90;100929.00;;;;4933135;28;92931;-63
2022/09/20 11:55:10;;;;;;;0.47;0.47;;;21.50;99.90;22.00;100923.00;;;;4931576;28;93001;-63
2022/09/20 11:57:37;;;;;;;0.35;0.35;;;21.60;99.60;22.10;100922.00;;;;4915373;28;93670;-62
2022/09/20 12:00:07;;;;;;;0.50;0.40;;;21.70;97.90;22.10;100923.00;;;;4930607;28;123572;-62
2022/09/20 12:02:52;;;;;;;1.05;0.50;;;21.80;98.30;22.40;100911.00;;;;4930877;28;92330;-62
2022/09/20 12:05:40;;;;;;;1.85;0.70;;;22.00;97.40;22.60;100917.00;;;;4932104;28;107847;-62
2022/09/20 12:08:36;;;;;;;0.20;0.20;;;22.20;96.30;22.60;100913.00;;;;4932627;28;93791;-62
2022/09/20 12:11:12;;;;;;;0.63;0.57;;;22.30;96.10;22.70;100922.00;;;;4931257;28;112369;-62
2022/09/20 12:13:41;;;;;;;0.60;0.50;;;22.30;95.30;22.60;100911.00;;;;4931335;28;91681;-62
2022/09/20 12:16:28;;;;;;;7.40;0.60;;;22.30;93.50;22.30;100909.00;;;;4932654;28;91999;-62
2022/09/20 12:18:54;;;;;;;2.05;0.95;;;22.10;91.30;21.90;100908.00;;;;4928670;28;92620;-62